createdAt,value
2019-05-11T00:00:40.063Z,1011.49
2019-05-11T00:01:44.287Z,1011.48
2019-05-11T00:02:48.486Z,1011.49
2019-05-11T00:03:52.711Z,1011.51
2019-05-11T00:04:56.969Z,1011.52
2019-05-11T00:06:01.190Z,1011.53
2019-05-11T00:07:05.333Z,1011.52
2019-05-11T00:08:09.470Z,1011.49
2019-05-11T00:09:13.836Z,1011.46
2019-05-11T00:10:18.048Z,1011.43
2019-05-11T00:11:22.174Z,1011.41
2019-05-11T00:12:26.429Z,1011.39
2019-05-11T00:13:30.666Z,1011.39
2019-05-11T00:14:35.813Z,1011.41
2019-05-11T00:15:39.644Z,1011.44
2019-05-11T00:16:43.863Z,1011.48
2019-05-11T00:17:48.118Z,1011.50
2019-05-11T00:18:52.338Z,1011.51
2019-05-11T00:19:56.496Z,1011.52
2019-05-11T00:21:00.712Z,1011.50
2019-05-11T00:22:04.863Z,1011.50
2019-05-11T00:23:09.105Z,1011.47
2019-05-11T00:24:13.189Z,1011.44
2019-05-11T00:25:17.454Z,1011.43
2019-05-11T00:26:21.683Z,1011.42
2019-05-11T00:27:25.884Z,1011.41
2019-05-11T00:28:30.039Z,1011.39
2019-05-11T00:29:34.278Z,1011.37
2019-05-11T00:30:38.465Z,1011.38
2019-05-11T00:31:42.687Z,1011.37
2019-05-11T00:32:46.884Z,1011.38
2019-05-11T00:33:51.213Z,1011.42
2019-05-11T00:34:55.471Z,1011.44
2019-05-11T00:35:59.523Z,1011.47
2019-05-11T00:37:03.865Z,1011.48
2019-05-11T00:38:08.030Z,1011.46
2019-05-11T00:39:12.211Z,1011.48
2019-05-11T00:40:16.434Z,1011.48
2019-05-11T00:41:20.549Z,1011.49
2019-05-11T00:42:24.797Z,1011.49
2019-05-11T00:43:28.912Z,1011.48
2019-05-11T00:44:33.226Z,1011.49
2019-05-11T00:45:37.394Z,1011.49
2019-05-11T00:46:41.681Z,1011.47
2019-05-11T00:47:45.839Z,1011.48
2019-05-11T00:48:50.053Z,1011.50
2019-05-11T00:49:54.253Z,1011.51
2019-05-11T00:50:58.476Z,1011.53
2019-05-11T00:52:02.731Z,1011.56
2019-05-11T00:53:06.997Z,1011.57
2019-05-11T00:54:11.155Z,1011.58
2019-05-11T00:55:15.364Z,1011.55
2019-05-11T00:56:19.685Z,1011.54
2019-05-11T00:57:23.913Z,1011.51
2019-05-11T00:58:28.084Z,1011.51
2019-05-11T00:59:32.256Z,1011.53
2019-05-11T01:00:36.479Z,1011.51
2019-05-11T01:01:40.763Z,1011.52
2019-05-11T01:02:45.008Z,1011.51
2019-05-11T01:03:49.085Z,1011.51
2019-05-11T01:04:53.404Z,1011.53
2019-05-11T01:05:57.624Z,1011.53
2019-05-11T01:07:01.830Z,1011.54
2019-05-11T01:08:05.980Z,1011.53
2019-05-11T01:09:10.202Z,1011.51
2019-05-11T01:10:23.620Z,1011.51
2019-05-11T01:11:18.633Z,1011.50
2019-05-11T01:12:22.823Z,1011.48
2019-05-11T01:13:27.030Z,1011.48
2019-05-11T01:14:31.251Z,1011.46
2019-05-11T01:15:35.444Z,1011.46
2019-05-11T01:16:39.641Z,1011.46
2019-05-11T01:17:43.920Z,1011.45
2019-05-11T01:18:48.085Z,1011.45
2019-05-11T01:19:52.270Z,1011.42
2019-05-11T01:20:56.536Z,1011.40
2019-05-11T01:22:00.795Z,1011.38
2019-05-11T01:23:05.001Z,1011.35
2019-05-11T01:24:09.254Z,1011.38
2019-05-11T01:25:13.319Z,1011.40
2019-05-11T01:26:17.460Z,1011.41
2019-05-11T01:27:21.695Z,1011.43
2019-05-11T01:28:25.941Z,1011.43
2019-05-11T01:29:30.157Z,1011.44
2019-05-11T01:30:34.284Z,1011.44
2019-05-11T01:31:38.557Z,1011.44
2019-05-11T01:32:42.662Z,1011.46
2019-05-11T01:33:46.905Z,1011.46
2019-05-11T01:34:51.200Z,1011.49
2019-05-11T01:35:58.458Z,1011.50
2019-05-11T01:37:01.741Z,1011.52
2019-05-11T01:38:05.912Z,1011.53
2019-05-11T01:39:10.189Z,1011.56
2019-05-11T01:40:14.221Z,1011.55
2019-05-11T01:41:18.502Z,1011.55
2019-05-11T01:42:22.755Z,1011.52
2019-05-11T01:43:26.997Z,1011.52
2019-05-11T01:44:31.145Z,1011.51
2019-05-11T01:45:35.398Z,1011.50
2019-05-11T01:46:39.696Z,1011.51
2019-05-11T01:47:43.756Z,1011.47
2019-05-11T01:48:47.988Z,1011.42
2019-05-11T01:49:52.129Z,1011.39
2019-05-11T01:50:56.450Z,1011.38
2019-05-11T01:52:00.560Z,1011.37
2019-05-11T01:53:04.786Z,1011.38
2019-05-11T01:54:09.055Z,1011.42
2019-05-11T01:55:13.251Z,1011.45
2019-05-11T01:56:17.461Z,1011.52
2019-05-11T01:57:21.660Z,1011.51
2019-05-11T01:58:25.872Z,1011.48
2019-05-11T01:59:30.016Z,1011.45
2019-05-11T02:00:34.274Z,1011.41
2019-05-11T02:01:38.413Z,1011.36
2019-05-11T02:02:42.616Z,1011.33
2019-05-11T02:03:46.913Z,1011.33
2019-05-11T02:04:51.071Z,1011.39
2019-05-11T02:05:55.192Z,1011.42
2019-05-11T02:06:59.496Z,1011.45
2019-05-11T02:08:03.620Z,1011.45
2019-05-11T02:09:07.749Z,1011.46
2019-05-11T02:10:12.077Z,1011.43
2019-05-11T02:11:16.435Z,1011.43
2019-05-11T02:12:20.483Z,1011.42
2019-05-11T02:13:24.648Z,1011.43
2019-05-11T02:14:28.842Z,1011.43
2019-05-11T02:15:33.111Z,1011.43
2019-05-11T02:16:37.263Z,1011.45
2019-05-11T02:17:41.435Z,1011.43
2019-05-11T02:18:45.601Z,1011.42
2019-05-11T02:19:49.813Z,1011.40
2019-05-11T02:20:54.030Z,1011.38
2019-05-11T02:21:58.592Z,1011.40
2019-05-11T02:23:02.639Z,1011.42
2019-05-11T02:24:06.842Z,1011.37
2019-05-11T02:25:10.978Z,1011.41
2019-05-11T02:26:15.202Z,1011.41
2019-05-11T02:27:19.355Z,1011.40
2019-05-11T02:28:23.606Z,1011.38
2019-05-11T02:29:27.783Z,1011.35
2019-05-11T02:30:31.949Z,1011.36
2019-05-11T02:31:36.096Z,1011.39
2019-05-11T02:32:40.392Z,1011.42
2019-05-11T02:33:44.614Z,1011.43
2019-05-11T02:34:48.869Z,1011.43
2019-05-11T02:35:52.943Z,1011.45
2019-05-11T02:36:57.249Z,1011.45
2019-05-11T02:38:01.485Z,1011.45
2019-05-11T02:39:05.694Z,1011.42
2019-05-11T02:40:09.958Z,1011.40
2019-05-11T02:41:14.175Z,1011.37
2019-05-11T02:42:18.334Z,1011.35
2019-05-11T02:43:22.512Z,1011.36
2019-05-11T02:44:26.735Z,1011.37
2019-05-11T02:45:30.869Z,1011.39
2019-05-11T02:46:35.128Z,1011.41
2019-05-11T02:47:39.257Z,1011.43
2019-05-11T02:48:43.415Z,1011.43
2019-05-11T02:49:47.636Z,1011.45
2019-05-11T02:50:51.894Z,1011.46
2019-05-11T02:51:56.018Z,1011.50
2019-05-11T02:53:00.192Z,1011.53
2019-05-11T02:54:04.429Z,1011.57
2019-05-11T02:55:08.656Z,1011.58
2019-05-11T02:56:12.778Z,1011.58
2019-05-11T02:57:17.059Z,1011.57
2019-05-11T02:58:21.133Z,1011.57
2019-05-11T02:59:29.693Z,1011.56
2019-05-11T03:00:29.841Z,1011.55
2019-05-11T03:01:33.960Z,1011.55
2019-05-11T03:02:38.011Z,1011.58
2019-05-11T03:03:42.275Z,1011.58
2019-05-11T03:04:46.585Z,1011.58
2019-05-11T03:05:50.659Z,1011.60
2019-05-11T03:06:54.921Z,1011.60
2019-05-11T03:07:59.112Z,1011.65
2019-05-11T03:09:03.200Z,1011.71
2019-05-11T03:10:07.457Z,1011.72
2019-05-11T03:11:11.589Z,1011.72
2019-05-11T03:12:15.731Z,1011.74
2019-05-11T03:13:19.917Z,1011.75
2019-05-11T03:14:24.087Z,1011.76
2019-05-11T03:15:28.349Z,1011.82
2019-05-11T03:16:32.456Z,1011.85
2019-05-11T03:17:36.589Z,1011.85
2019-05-11T03:18:40.659Z,1011.89
2019-05-11T03:19:44.779Z,1011.88
2019-05-11T03:20:49.021Z,1011.86
2019-05-11T03:21:53.162Z,1011.86
2019-05-11T03:22:57.353Z,1011.90
2019-05-11T03:24:01.520Z,1011.89
2019-05-11T03:25:05.673Z,1011.86
2019-05-11T03:26:09.929Z,1011.87
2019-05-11T03:27:14.036Z,1011.87
2019-05-11T03:28:18.336Z,1011.88
2019-05-11T03:29:22.424Z,1011.88
2019-05-11T03:30:26.685Z,1011.87
2019-05-11T03:31:30.814Z,1011.85
2019-05-11T03:32:38.021Z,1011.84
2019-05-11T03:33:41.211Z,1011.79
2019-05-11T03:34:45.452Z,1011.78
2019-05-11T03:35:49.652Z,1011.79
2019-05-11T03:36:53.915Z,1011.81
2019-05-11T03:37:58.066Z,1011.83
2019-05-11T03:39:02.316Z,1011.83
2019-05-11T03:40:06.317Z,1011.83
2019-05-11T03:41:10.635Z,1011.84
2019-05-11T03:42:15.522Z,1011.86
2019-05-11T03:43:18.971Z,1011.87
2019-05-11T03:44:25.975Z,1011.86
2019-05-11T03:45:29.284Z,1011.86
2019-05-11T03:46:33.438Z,1011.85
2019-05-11T03:47:37.527Z,1011.83
2019-05-11T03:48:41.717Z,1011.79
2019-05-11T03:49:45.882Z,1011.78
2019-05-11T03:50:50.169Z,1011.78
2019-05-11T03:51:54.306Z,1011.79
2019-05-11T03:52:58.522Z,1011.82
2019-05-11T03:54:02.682Z,1011.86
2019-05-11T03:55:06.914Z,1011.83
2019-05-11T03:56:11.087Z,1011.87
2019-05-11T03:57:15.300Z,1011.88
2019-05-11T03:58:19.454Z,1011.94
2019-05-11T03:59:23.595Z,1011.97
2019-05-11T04:00:27.761Z,1011.99
2019-05-11T04:01:32.021Z,1011.99
2019-05-11T04:02:36.233Z,1011.95
2019-05-11T04:03:40.440Z,1011.99
2019-05-11T04:04:44.677Z,1011.98
2019-05-11T04:05:48.796Z,1011.99
2019-05-11T04:06:52.950Z,1011.98
2019-05-11T04:07:57.229Z,1011.97
2019-05-11T04:09:01.356Z,1011.96
2019-05-11T04:10:05.588Z,1011.98
2019-05-11T04:11:09.724Z,1012.01
2019-05-11T04:12:32.893Z,1012.02
2019-05-11T04:13:18.127Z,1012.02
2019-05-11T04:14:22.361Z,1012.05
2019-05-11T04:15:26.548Z,1012.10
2019-05-11T04:16:30.739Z,1012.13
2019-05-11T04:17:34.923Z,1012.15
2019-05-11T04:18:39.190Z,1012.16
2019-05-11T04:19:43.281Z,1012.21
2019-05-11T04:20:47.534Z,1012.20
2019-05-11T04:21:51.753Z,1012.19
2019-05-11T04:22:55.942Z,1012.16
2019-05-11T04:24:00.206Z,1012.18
2019-05-11T04:25:04.314Z,1012.19
2019-05-11T04:26:08.496Z,1012.19
2019-05-11T04:27:12.800Z,1012.20
2019-05-11T04:28:16.951Z,1012.23
2019-05-11T04:29:21.178Z,1012.22
2019-05-11T04:30:25.378Z,1012.22
2019-05-11T04:31:29.626Z,1012.22
2019-05-11T04:32:33.828Z,1012.21
2019-05-11T04:33:38.048Z,1012.19
2019-05-11T04:34:42.265Z,1012.20
2019-05-11T04:35:46.494Z,1012.22
2019-05-11T04:36:50.691Z,1012.23
2019-05-11T04:37:54.927Z,1012.20
2019-05-11T04:38:59.147Z,1012.20
2019-05-11T04:40:03.394Z,1012.19
2019-05-11T04:41:07.618Z,1012.16
2019-05-11T04:42:11.728Z,1012.16
2019-05-11T04:43:15.997Z,1012.15
2019-05-11T04:44:23.242Z,1012.16
2019-05-11T04:45:26.434Z,1012.16
2019-05-11T04:46:30.697Z,1012.16
2019-05-11T04:47:34.908Z,1012.18
2019-05-11T04:48:39.144Z,1012.17
2019-05-11T04:49:43.353Z,1012.20
2019-05-11T04:50:47.555Z,1012.21
2019-05-11T04:51:51.678Z,1012.22
2019-05-11T04:52:55.932Z,1012.24
2019-05-11T04:54:00.107Z,1012.25
2019-05-11T04:55:04.293Z,1012.26
2019-05-11T04:56:08.604Z,1012.30
2019-05-11T04:57:12.744Z,1012.28
2019-05-11T04:58:16.945Z,1012.32
2019-05-11T04:59:21.227Z,1012.32
2019-05-11T05:00:25.372Z,1012.34
2019-05-11T05:01:29.627Z,1012.32
2019-05-11T05:02:33.865Z,1012.32
2019-05-11T05:03:41.155Z,1012.27
2019-05-11T05:04:42.290Z,1012.26
2019-05-11T05:05:46.420Z,1012.26
2019-05-11T05:06:59.473Z,1012.25
2019-05-11T05:08:08.596Z,1012.25
2019-05-11T05:09:03.662Z,1012.24
2019-05-11T05:10:03.253Z,1012.23
2019-05-11T05:11:07.532Z,1012.24
2019-05-11T05:12:13.947Z,1012.24
2019-05-11T05:13:15.890Z,1012.21
2019-05-11T05:14:20.118Z,1012.20
2019-05-11T05:15:24.339Z,1012.22
2019-05-11T05:16:31.310Z,1012.22
2019-05-11T05:17:32.862Z,1012.21
2019-05-11T05:18:37.062Z,1012.19
2019-05-11T05:19:41.273Z,1012.19
2019-05-11T05:20:45.504Z,1012.17
2019-05-11T05:21:49.650Z,1012.15
2019-05-11T05:22:53.943Z,1012.16
2019-05-11T05:23:58.108Z,1012.16
2019-05-11T05:25:02.407Z,1012.15
2019-05-11T05:26:06.653Z,1012.13
2019-05-11T05:27:10.855Z,1012.13
2019-05-11T05:28:15.092Z,1012.13
2019-05-11T05:29:19.313Z,1012.15
2019-05-11T05:30:23.520Z,1012.16
2019-05-11T05:31:27.761Z,1012.15
2019-05-11T05:32:32.018Z,1012.16
2019-05-11T05:33:36.075Z,1012.13
2019-05-11T05:34:40.464Z,1012.08
2019-05-11T05:35:44.736Z,1012.09
2019-05-11T05:36:48.787Z,1012.11
2019-05-11T05:37:53.104Z,1012.11
2019-05-11T05:38:57.407Z,1012.09
2019-05-11T05:40:01.617Z,1012.08
2019-05-11T05:41:05.943Z,1012.05
2019-05-11T05:42:10.231Z,1011.98
2019-05-11T05:43:25.917Z,1011.98
2019-05-11T05:44:18.640Z,1011.98
2019-05-11T05:45:22.914Z,1011.92
2019-05-11T05:46:27.169Z,1011.93
2019-05-11T05:47:31.511Z,1011.91
2019-05-11T05:48:35.675Z,1011.91
2019-05-11T05:49:39.965Z,1011.91
2019-05-11T05:50:44.276Z,1011.93
2019-05-11T05:51:48.597Z,1011.96
2019-05-11T05:52:52.846Z,1011.95
2019-05-11T05:53:57.151Z,1011.98
2019-05-11T05:55:01.376Z,1012.02
2019-05-11T05:56:05.730Z,1012.05
2019-05-11T05:57:09.903Z,1012.05
2019-05-11T05:58:14.160Z,1012.06
2019-05-11T05:59:18.449Z,1012.08
2019-05-11T06:00:22.754Z,1012.08
2019-05-11T06:01:27.015Z,1012.09
2019-05-11T06:02:31.348Z,1012.08
2019-05-11T06:03:35.604Z,1012.11
2019-05-11T06:04:39.922Z,1012.10
2019-05-11T06:05:44.135Z,1012.14
2019-05-11T06:06:48.414Z,1012.14
2019-05-11T06:07:52.706Z,1012.17
2019-05-11T06:08:56.927Z,1012.15
2019-05-11T06:10:01.126Z,1012.16
2019-05-11T06:11:05.410Z,1012.15
2019-05-11T06:12:09.643Z,1012.17
2019-05-11T06:13:13.925Z,1012.18
2019-05-11T06:14:18.181Z,1012.21
2019-05-11T06:15:22.426Z,1012.19
2019-05-11T06:16:26.643Z,1012.17
2019-05-11T06:17:31.044Z,1012.20
2019-05-11T06:18:35.346Z,1012.25
2019-05-11T06:19:39.586Z,1012.25
2019-05-11T06:20:43.858Z,1012.24
2019-05-11T06:21:48.096Z,1012.25
2019-05-11T06:22:52.343Z,1012.26
2019-05-11T06:23:56.697Z,1012.30
2019-05-11T06:25:01.019Z,1012.27
2019-05-11T06:26:05.271Z,1012.30
2019-05-11T06:27:09.615Z,1012.30
2019-05-11T06:28:13.923Z,1012.30
2019-05-11T06:29:21.523Z,1012.29
2019-05-11T06:30:22.493Z,1012.30
2019-05-11T06:31:26.800Z,1012.30
2019-05-11T06:32:31.016Z,1012.33
2019-05-11T06:33:35.347Z,1012.36
2019-05-11T06:34:39.656Z,1012.35
2019-05-11T06:35:43.992Z,1012.36
2019-05-11T06:36:48.293Z,1012.35
2019-05-11T06:37:52.574Z,1012.34
2019-05-11T06:38:56.860Z,1012.32
2019-05-11T06:40:01.061Z,1012.32
2019-05-11T06:41:05.450Z,1012.31
2019-05-11T06:42:09.771Z,1012.31
2019-05-11T06:43:14.086Z,1012.37
2019-05-11T06:44:18.389Z,1012.37
2019-05-11T06:45:22.713Z,1012.39
2019-05-11T06:46:26.969Z,1012.43
2019-05-11T06:47:31.313Z,1012.44
2019-05-11T06:48:35.504Z,1012.47
2019-05-11T06:49:39.862Z,1012.47
2019-05-11T06:50:44.153Z,1012.48
2019-05-11T06:51:48.483Z,1012.52
2019-05-11T06:52:52.770Z,1012.53
2019-05-11T06:53:56.968Z,1012.53
2019-05-11T06:55:01.325Z,1012.51
2019-05-11T06:56:05.551Z,1012.52
2019-05-11T06:57:09.809Z,1012.54
2019-05-11T06:58:14.063Z,1012.53
2019-05-11T06:59:18.325Z,1012.56
2019-05-11T07:00:22.684Z,1012.56
2019-05-11T07:01:26.963Z,1012.57
2019-05-11T07:02:31.261Z,1012.57
2019-05-11T07:03:35.514Z,1012.57
2019-05-11T07:04:39.753Z,1012.56
2019-05-11T07:05:44.113Z,1012.54
2019-05-11T07:06:48.394Z,1012.55
2019-05-11T07:07:52.618Z,1012.54
2019-05-11T07:08:56.839Z,1012.52
2019-05-11T07:10:01.238Z,1012.55
2019-05-11T07:11:05.512Z,1012.54
2019-05-11T07:12:09.974Z,1012.54
2019-05-11T07:13:14.040Z,1012.54
2019-05-11T07:14:21.195Z,1012.57
2019-05-11T07:15:22.407Z,1012.56
2019-05-11T07:16:26.761Z,1012.59
2019-05-11T07:17:31.091Z,1012.60
2019-05-11T07:18:35.397Z,1012.61
2019-05-11T07:19:39.609Z,1012.62
2019-05-11T07:20:50.663Z,1012.63
2019-05-11T07:21:48.220Z,1012.65
2019-05-11T07:22:52.587Z,1012.64
2019-05-11T07:23:56.912Z,1012.64
2019-05-11T07:25:01.113Z,1012.63
2019-05-11T07:26:05.434Z,1012.63
2019-05-11T07:27:09.775Z,1012.66
2019-05-11T07:28:14.013Z,1012.64
2019-05-11T07:29:18.271Z,1012.66
2019-05-11T07:30:22.592Z,1012.67
2019-05-11T07:31:26.934Z,1012.68
2019-05-11T07:32:31.166Z,1012.68
2019-05-11T07:33:35.452Z,1012.69
2019-05-11T07:34:39.814Z,1012.71
2019-05-11T07:35:44.094Z,1012.72
2019-05-11T07:36:48.328Z,1012.72
2019-05-11T07:37:52.675Z,1012.75
2019-05-11T07:38:57.980Z,1012.72
2019-05-11T07:40:01.163Z,1012.76
2019-05-11T07:41:05.460Z,1012.73
2019-05-11T07:42:09.734Z,1012.70
2019-05-11T07:43:14.043Z,1012.70
2019-05-11T07:44:19.074Z,1012.68
2019-05-11T07:45:22.571Z,1012.69
2019-05-11T07:46:28.869Z,1012.68
2019-05-11T07:47:31.084Z,1012.67
2019-05-11T07:48:35.390Z,1012.67
2019-05-11T07:49:39.752Z,1012.67
2019-05-11T07:50:43.969Z,1012.67
2019-05-11T07:51:48.246Z,1012.70
2019-05-11T07:52:52.529Z,1012.71
2019-05-11T07:53:57.816Z,1012.68
2019-05-11T07:55:01.131Z,1012.68
2019-05-11T07:56:05.354Z,1012.68
2019-05-11T07:57:09.714Z,1012.67
2019-05-11T07:58:14.015Z,1012.66
2019-05-11T07:59:18.497Z,1012.65
2019-05-11T08:00:22.663Z,1012.66
2019-05-11T08:01:28.118Z,1012.64
2019-05-11T08:02:32.438Z,1012.65
2019-05-11T08:03:35.564Z,1012.65
2019-05-11T08:04:39.849Z,1012.64
2019-05-11T08:05:44.107Z,1012.63
2019-05-11T08:06:48.502Z,1012.62
2019-05-11T08:07:52.827Z,1012.63
2019-05-11T08:08:58.762Z,1012.61
2019-05-11T08:10:01.487Z,1012.64
2019-05-11T08:11:07.914Z,1012.63
2019-05-11T08:12:10.017Z,1012.63
2019-05-11T08:13:14.316Z,1012.61
2019-05-11T08:14:18.680Z,1012.62
2019-05-11T08:15:22.920Z,1012.64
2019-05-11T08:16:28.532Z,1012.66
2019-05-11T08:17:31.586Z,1012.66
2019-05-11T08:18:38.509Z,1012.66
2019-05-11T08:19:40.242Z,1012.67
2019-05-11T08:20:44.532Z,1012.66
2019-05-11T08:21:48.870Z,1012.67
2019-05-11T08:22:53.203Z,1012.67
2019-05-11T08:23:58.749Z,1012.70
2019-05-11T08:25:01.748Z,1012.70
2019-05-11T08:26:08.217Z,1012.71
2019-05-11T08:27:10.418Z,1012.72
2019-05-11T08:28:14.660Z,1012.73
2019-05-11T08:29:18.949Z,1012.73
2019-05-11T08:30:23.225Z,1012.74
2019-05-11T08:31:28.006Z,1012.75
2019-05-11T08:32:31.875Z,1012.72
2019-05-11T08:33:36.133Z,1012.72
2019-05-11T08:34:40.398Z,1012.71
2019-05-11T08:35:44.775Z,1012.71
2019-05-11T08:36:49.103Z,1012.71
2019-05-11T08:37:53.461Z,1012.67
2019-05-11T08:38:58.569Z,1012.68
2019-05-11T08:40:02.053Z,1012.69
2019-05-11T08:41:08.137Z,1012.67
2019-05-11T08:42:10.612Z,1012.66
2019-05-11T08:43:14.885Z,1012.64
2019-05-11T08:44:19.297Z,1012.65
2019-05-11T08:45:24.864Z,1012.67
2019-05-11T08:46:28.135Z,1012.68
2019-05-11T08:47:32.130Z,1012.67
2019-05-11T08:48:38.609Z,1012.67
2019-05-11T08:49:40.697Z,1012.63
2019-05-11T08:50:45.005Z,1012.62
2019-05-11T08:51:49.262Z,1012.62
2019-05-11T08:52:53.625Z,1012.60
2019-05-11T08:53:58.433Z,1012.56
2019-05-11T08:55:02.299Z,1012.58
2019-05-11T08:56:09.201Z,1012.59
2019-05-11T08:57:10.903Z,1012.57
2019-05-11T08:58:15.144Z,1012.56
2019-05-11T08:59:19.438Z,1012.60
2019-05-11T09:00:23.809Z,1012.61
2019-05-11T09:01:28.824Z,1012.61
2019-05-11T09:02:32.366Z,1012.59
2019-05-11T09:03:38.764Z,1012.60
2019-05-11T09:04:42.083Z,1012.64
2019-05-11T09:05:45.239Z,1012.64
2019-05-11T09:06:49.583Z,1012.68
2019-05-11T09:07:53.885Z,1012.70
2019-05-11T09:08:58.473Z,1012.74
2019-05-11T09:10:02.404Z,1012.74
2019-05-11T09:11:08.409Z,1012.74
2019-05-11T09:12:11.013Z,1012.76
2019-05-11T09:13:15.379Z,1012.75
2019-05-11T09:14:19.689Z,1012.74
2019-05-11T09:15:33.611Z,1012.75
2019-05-11T09:16:29.074Z,1012.72
2019-05-11T09:17:32.502Z,1012.72
2019-05-11T09:18:38.573Z,1012.70
2019-05-11T09:19:41.222Z,1012.68
2019-05-11T09:20:45.489Z,1012.69
2019-05-11T09:21:49.745Z,1012.71
2019-05-11T09:22:54.044Z,1012.70
2019-05-11T09:23:58.440Z,1012.71
2019-05-11T09:25:02.765Z,1012.71
2019-05-11T09:26:08.772Z,1012.69
2019-05-11T09:27:11.363Z,1012.67
2019-05-11T09:28:17.840Z,1012.63
2019-05-11T09:29:20.044Z,1012.61
2019-05-11T09:30:24.382Z,1012.59
2019-05-11T09:31:28.658Z,1012.61
2019-05-11T09:32:39.977Z,1012.58
2019-05-11T09:33:42.823Z,1012.59
2019-05-11T09:34:48.470Z,1012.61
2019-05-11T09:35:53.532Z,1012.62
2019-05-11T09:36:58.853Z,1012.63
2019-05-11T09:38:02.212Z,1012.64
2019-05-11T09:39:08.377Z,1012.63
2019-05-11T09:40:10.738Z,1012.63
2019-05-11T09:41:15.158Z,1012.56
2019-05-11T09:42:19.522Z,1012.57
2019-05-11T09:43:23.798Z,1012.57
2019-05-11T09:44:28.808Z,1012.52
2019-05-11T09:45:44.715Z,1012.54
2019-05-11T09:46:38.471Z,1012.54
2019-05-11T09:47:41.189Z,1012.54
2019-05-11T09:48:45.439Z,1012.58
2019-05-11T09:49:51.065Z,1012.61
2019-05-11T09:50:54.105Z,1012.63
2019-05-11T09:51:59.067Z,1012.65
2019-05-11T09:53:02.773Z,1012.65
2019-05-11T09:54:07.846Z,1012.69
2019-05-11T09:55:11.443Z,1012.68
2019-05-11T09:56:18.096Z,1012.69
2019-05-11T09:57:20.119Z,1012.72
2019-05-11T09:58:24.321Z,1012.71
2019-05-11T09:59:28.766Z,1012.73
2019-05-11T10:00:33.079Z,1012.65
2019-05-11T10:01:37.883Z,1012.63
2019-05-11T10:02:41.622Z,1012.64
2019-05-11T10:03:48.090Z,1012.63
2019-05-11T10:04:50.261Z,1012.64
2019-05-11T10:05:54.559Z,1012.60
2019-05-11T10:06:58.991Z,1012.60
2019-05-11T10:08:03.174Z,1012.60
2019-05-11T10:09:08.333Z,1012.57
2019-05-11T10:10:11.747Z,1012.60
2019-05-11T10:11:16.054Z,1012.60
2019-05-11T10:12:20.380Z,1012.61
2019-05-11T10:13:24.697Z,1012.60
2019-05-11T10:14:29.060Z,1012.62
2019-05-11T10:15:33.318Z,1012.64
2019-05-11T10:16:38.682Z,1012.61
2019-05-11T10:17:41.979Z,1012.62
2019-05-11T10:18:48.888Z,1012.67
2019-05-11T10:19:50.598Z,1012.66
2019-05-11T10:20:54.991Z,1012.62
2019-05-11T10:21:59.299Z,1012.65
2019-05-11T10:23:03.535Z,1012.63
2019-05-11T10:24:08.626Z,1012.64
2019-05-11T10:25:12.166Z,1012.60
2019-05-11T10:26:18.684Z,1012.58
2019-05-11T10:27:20.844Z,1012.59
2019-05-11T10:28:25.221Z,1012.60
2019-05-11T10:29:29.556Z,1012.61
2019-05-11T10:30:33.803Z,1012.65
2019-05-11T10:31:38.675Z,1012.67
2019-05-11T10:32:42.540Z,1012.72
2019-05-11T10:33:48.958Z,1012.72
2019-05-11T10:34:51.105Z,1012.71
2019-05-11T10:35:55.515Z,1012.73
2019-05-11T10:36:59.860Z,1012.75
2019-05-11T10:38:04.213Z,1012.76
2019-05-11T10:39:08.490Z,1012.79
2019-05-11T10:40:12.777Z,1012.78
2019-05-11T10:41:18.147Z,1012.83
2019-05-11T10:42:21.353Z,1012.82
2019-05-11T10:43:25.665Z,1012.85
2019-05-11T10:44:29.928Z,1012.86
2019-05-11T10:45:34.251Z,1012.86
2019-05-11T10:46:38.541Z,1012.86
2019-05-11T10:47:42.867Z,1012.87
2019-05-11T10:48:48.188Z,1012.84
2019-05-11T10:49:51.517Z,1012.84
2019-05-11T10:50:57.506Z,1012.85
2019-05-11T10:52:00.145Z,1012.84
2019-05-11T10:53:04.406Z,1012.82
2019-05-11T10:54:08.961Z,1012.79
2019-05-11T10:55:12.947Z,1012.79
2019-05-11T10:56:17.980Z,1012.79
2019-05-11T10:57:21.518Z,1012.79
2019-05-11T10:58:25.810Z,1012.78
2019-05-11T10:59:30.188Z,1012.77
2019-05-11T11:00:34.392Z,1012.76
2019-05-11T11:01:38.769Z,1012.76
2019-05-11T11:02:43.007Z,1012.75
2019-05-11T11:03:48.378Z,1012.75
2019-05-11T11:04:51.705Z,1012.75
2019-05-11T11:05:58.068Z,1012.74
2019-05-11T11:07:00.316Z,1012.74
2019-05-11T11:08:04.668Z,1012.76
2019-05-11T11:09:08.949Z,1012.74
2019-05-11T11:10:13.260Z,1012.70
2019-05-11T11:11:18.533Z,1012.70
2019-05-11T11:12:24.949Z,1012.68
2019-05-11T11:13:28.321Z,1012.67
2019-05-11T11:14:32.613Z,1012.71
2019-05-11T11:15:38.089Z,1012.69
2019-05-11T11:16:43.036Z,1012.71
2019-05-11T11:17:48.389Z,1012.72
2019-05-11T11:18:50.503Z,1012.66
2019-05-11T11:19:54.756Z,1012.68
2019-05-11T11:20:59.145Z,1012.69
2019-05-11T11:22:30.255Z,1012.70
2019-05-11T11:23:08.871Z,1012.70
2019-05-11T11:24:12.118Z,1012.70
2019-05-11T11:25:18.034Z,1012.69
2019-05-11T11:26:20.681Z,1012.70
2019-05-11T11:27:25.069Z,1012.77
2019-05-11T11:28:29.309Z,1012.76
2019-05-11T11:29:33.647Z,1012.74
2019-05-11T11:30:38.066Z,1012.71
2019-05-11T11:31:42.416Z,1012.73
2019-05-11T11:32:48.280Z,1012.75
2019-05-11T11:33:50.968Z,1012.74
2019-05-11T11:34:57.587Z,1012.73
2019-05-11T11:35:59.628Z,1012.76
2019-05-11T11:37:03.891Z,1012.73
2019-05-11T11:38:08.656Z,1012.73
2019-05-11T11:39:12.399Z,1012.73
2019-05-11T11:40:17.764Z,1012.77
2019-05-11T11:41:21.023Z,1012.72
2019-05-11T11:42:25.408Z,1012.75
2019-05-11T11:43:29.794Z,1012.74
2019-05-11T11:44:34.062Z,1012.75
2019-05-11T11:45:38.365Z,1012.77
2019-05-11T11:46:52.176Z,1012.74
2019-05-11T11:47:49.290Z,1012.75
2019-05-11T11:48:51.367Z,1012.75
2019-05-11T11:49:58.213Z,1012.74
2019-05-11T11:51:00.105Z,1012.74
2019-05-11T11:52:04.490Z,1012.70
2019-05-11T11:53:08.752Z,1012.67
2019-05-11T11:54:13.098Z,1012.68
2019-05-11T11:55:18.573Z,1012.68
2019-05-11T11:56:21.840Z,1012.71
2019-05-11T11:57:28.259Z,1012.72
2019-05-11T11:58:30.631Z,1012.72
2019-05-11T11:59:34.893Z,1012.67
2019-05-11T12:00:39.377Z,1012.66
2019-05-11T12:01:43.724Z,1012.61
2019-05-11T12:02:48.753Z,1012.61
2019-05-11T12:03:52.346Z,1012.62
2019-05-11T12:04:58.094Z,1012.65
2019-05-11T12:06:01.063Z,1012.65
2019-05-11T12:07:05.417Z,1012.65
2019-05-11T12:08:09.696Z,1012.65
2019-05-11T12:09:14.105Z,1012.66
2019-05-11T12:10:18.479Z,1012.70
2019-05-11T12:11:22.811Z,1012.75
2019-05-11T12:12:27.889Z,1012.76
2019-05-11T12:13:31.400Z,1012.74
2019-05-11T12:14:35.846Z,1012.75
2019-05-11T12:15:40.173Z,1012.74
2019-05-11T12:16:44.472Z,1012.77
2019-05-11T12:17:48.823Z,1012.75
2019-05-11T12:18:53.232Z,1012.73
2019-05-11T12:19:58.564Z,1012.77
2019-05-11T12:21:01.872Z,1012.73
2019-05-11T12:22:08.460Z,1012.77
2019-05-11T12:23:10.519Z,1012.76
2019-05-11T12:24:14.848Z,1012.75
2019-05-11T12:25:19.163Z,1012.77
2019-05-11T12:26:23.602Z,1012.80
2019-05-11T12:27:28.664Z,1012.81
2019-05-11T12:28:32.275Z,1012.83
2019-05-11T12:29:38.546Z,1012.86
2019-05-11T12:30:40.950Z,1012.86
2019-05-11T12:31:45.216Z,1012.86
2019-05-11T12:32:49.531Z,1012.90
2019-05-11T12:33:53.822Z,1012.89
2019-05-11T12:34:58.809Z,1012.89
2019-05-11T12:36:02.551Z,1012.87
2019-05-11T12:37:08.520Z,1012.90
2019-05-11T12:38:11.266Z,1012.94
2019-05-11T12:39:15.518Z,1012.95
2019-05-11T12:40:19.860Z,1012.93
2019-05-11T12:41:24.245Z,1012.98
2019-05-11T12:42:28.583Z,1012.97
2019-05-11T12:43:32.942Z,1012.99
2019-05-11T12:44:38.689Z,1012.98
2019-05-11T12:45:41.583Z,1013.00
2019-05-11T12:46:45.920Z,1013.02
2019-05-11T12:47:50.255Z,1013.03
2019-05-11T12:48:56.621Z,1013.03
2019-05-11T12:49:58.820Z,1013.07
2019-05-11T12:51:03.185Z,1013.13
2019-05-11T12:52:07.768Z,1013.15
2019-05-11T12:53:11.951Z,1013.16
2019-05-11T12:54:18.550Z,1013.18
2019-05-11T12:55:20.494Z,1013.17
2019-05-11T12:56:24.839Z,1013.16
2019-05-11T12:57:29.229Z,1013.16